createdAt,value
2022-09-11T00:02:18.117Z,92
2022-09-11T00:05:43.277Z,92
2022-09-11T00:09:08.504Z,92
2022-09-11T00:12:33.720Z,92
2022-09-11T00:15:58.917Z,93
2022-09-11T00:19:24.081Z,92
2022-09-11T00:22:49.301Z,92
2022-09-11T00:26:14.502Z,92
2022-09-11T00:29:39.719Z,92
2022-09-11T00:33:04.892Z,92
2022-09-11T00:36:30.126Z,92
2022-09-11T00:39:55.448Z,93
2022-09-11T00:43:20.615Z,93
2022-09-11T00:46:45.878Z,93
2022-09-11T00:50:11.099Z,92
2022-09-11T00:53:36.298Z,92
2022-09-11T00:57:01.536Z,92
2022-09-11T01:00:26.743Z,92
2022-09-11T01:03:51.989Z,92
2022-09-11T01:07:17.167Z,92
2022-09-11T01:10:42.383Z,93
2022-09-11T01:14:07.629Z,92
2022-09-11T01:17:32.802Z,92
2022-09-11T01:20:58.004Z,92
2022-09-11T01:24:23.207Z,92
2022-09-11T01:27:48.409Z,92
2022-09-11T01:31:13.605Z,91
2022-09-11T01:34:38.770Z,92
2022-09-11T01:38:04.049Z,91
2022-09-11T01:41:29.207Z,91
2022-09-11T01:44:54.431Z,91
2022-09-11T01:48:19.631Z,92
2022-09-11T01:51:44.869Z,91
2022-09-11T01:55:10.101Z,92
2022-09-11T01:58:35.267Z,92
2022-09-11T02:02:00.541Z,92
2022-09-11T02:05:25.706Z,92
2022-09-11T02:08:50.933Z,91
2022-09-11T02:12:16.147Z,91
2022-09-11T02:15:41.315Z,91
2022-09-11T02:19:06.543Z,91
2022-09-11T02:22:31.733Z,91
2022-09-11T02:25:56.934Z,91
2022-09-11T02:29:22.147Z,92
2022-09-11T02:32:47.333Z,92
2022-09-11T02:36:12.549Z,92
2022-09-11T02:39:37.815Z,92
2022-09-11T02:43:02.958Z,92
2022-09-11T02:46:28.222Z,92
2022-09-11T02:49:53.413Z,92
2022-09-11T02:53:18.649Z,92
2022-09-11T02:56:43.879Z,92
2022-09-11T03:00:09.082Z,92
2022-09-11T03:03:34.311Z,92
2022-09-11T03:06:59.465Z,92
2022-09-11T03:10:24.683Z,92
2022-09-11T03:13:49.883Z,92
2022-09-11T03:17:15.110Z,92
2022-09-11T03:20:40.311Z,92
2022-09-11T03:24:05.461Z,92
2022-09-11T03:27:30.675Z,92
2022-09-11T03:30:55.878Z,92
2022-09-11T03:34:21.108Z,92
2022-09-11T03:37:46.385Z,92
2022-09-11T03:41:11.543Z,91
2022-09-11T03:44:36.718Z,91
2022-09-11T03:48:01.911Z,91
2022-09-11T03:51:27.121Z,91
2022-09-11T03:54:52.373Z,91
2022-09-11T03:58:17.570Z,91
2022-09-11T04:01:42.797Z,91
2022-09-11T04:05:07.977Z,91
2022-09-11T04:08:33.172Z,91
2022-09-11T04:11:58.360Z,91
2022-09-11T04:15:23.545Z,92
2022-09-11T04:18:48.777Z,92
2022-09-11T04:22:13.941Z,92
2022-09-11T04:25:39.185Z,92
2022-09-11T04:29:04.406Z,92
2022-09-11T04:32:29.578Z,93
2022-09-11T04:35:54.784Z,93
2022-09-11T04:39:20.021Z,93
2022-09-11T04:42:45.216Z,93
2022-09-11T04:46:10.446Z,93
2022-09-11T04:49:35.597Z,93
2022-09-11T04:53:00.831Z,93
2022-09-11T04:56:26.072Z,94
2022-09-11T04:59:51.297Z,94
2022-09-11T05:03:16.556Z,94
2022-09-11T05:06:41.738Z,94
2022-09-11T05:10:06.993Z,94
2022-09-11T05:13:36.190Z,94
2022-09-11T05:16:57.357Z,94
2022-09-11T05:20:22.580Z,94
2022-09-11T05:23:47.765Z,94
2022-09-11T05:27:12.999Z,94
2022-09-11T05:30:38.221Z,94
2022-09-11T05:34:03.448Z,94
2022-09-11T05:37:28.700Z,94
2022-09-11T05:40:53.861Z,94
2022-09-11T05:44:19.101Z,94
2022-09-11T05:47:44.358Z,94
2022-09-11T05:51:09.563Z,95
2022-09-11T05:54:34.794Z,95
2022-09-11T05:57:59.959Z,95
2022-09-11T06:01:25.256Z,95
2022-09-11T06:04:50.342Z,95
2022-09-11T06:08:15.553Z,95
2022-09-11T06:11:40.837Z,95
2022-09-11T06:15:06.007Z,94
2022-09-11T06:18:31.237Z,94
2022-09-11T06:21:56.441Z,94
2022-09-11T06:25:21.653Z,94
2022-09-11T06:28:46.929Z,94
2022-09-11T06:32:12.131Z,94
2022-09-11T06:35:37.344Z,94
2022-09-11T06:39:02.589Z,94
2022-09-11T06:42:27.783Z,94
2022-09-11T06:45:53.003Z,94
2022-09-11T06:49:18.141Z,94
2022-09-11T06:52:43.336Z,94
2022-09-11T06:56:08.506Z,94
2022-09-11T06:59:33.697Z,94
2022-09-11T07:02:58.913Z,94
2022-09-11T07:06:24.064Z,94
2022-09-11T07:09:49.222Z,94
2022-09-11T07:13:14.412Z,94
2022-09-11T07:16:39.661Z,94
2022-09-11T07:20:04.792Z,94
2022-09-11T07:23:29.940Z,94
2022-09-11T07:26:55.110Z,94
2022-09-11T07:30:20.293Z,94
2022-09-11T07:33:45.463Z,94
2022-09-11T07:37:10.662Z,94
2022-09-11T07:40:35.820Z,94
2022-09-11T07:44:01.007Z,94
2022-09-11T07:47:26.189Z,93
2022-09-11T07:50:51.355Z,93
2022-09-11T07:54:16.559Z,93
2022-09-11T07:57:41.715Z,93
2022-09-11T08:01:06.933Z,93
2022-09-11T08:04:32.093Z,93
2022-09-11T08:07:57.264Z,92
2022-09-11T08:11:22.470Z,92
2022-09-11T08:14:47.642Z,93
2022-09-11T08:18:12.825Z,92
2022-09-11T08:21:38.012Z,92
2022-09-11T08:25:03.188Z,92
2022-09-11T08:28:28.427Z,92
2022-09-11T08:31:53.587Z,92
2022-09-11T08:35:18.774Z,92
2022-09-11T08:38:43.971Z,91
2022-09-11T08:42:09.129Z,91
2022-09-11T08:45:34.402Z,92
2022-09-11T08:48:59.484Z,92
2022-09-11T08:52:24.659Z,92
2022-09-11T08:55:49.816Z,92
2022-09-11T08:59:14.996Z,92
2022-09-11T09:02:40.190Z,92
2022-09-11T09:06:05.343Z,93
2022-09-11T09:09:34.416Z,92
2022-09-11T09:12:55.735Z,92
2022-09-11T09:16:21.025Z,92
2022-09-11T09:19:46.165Z,93
2022-09-11T09:23:11.326Z,92
2022-09-11T09:26:38.530Z,93
2022-09-11T09:30:01.724Z,92
2022-09-11T09:33:26.874Z,92
2022-09-11T09:36:52.070Z,91
2022-09-11T09:40:17.372Z,91
2022-09-11T09:43:42.612Z,91
2022-09-11T09:47:07.573Z,92
2022-09-11T09:50:32.758Z,91
2022-09-11T09:53:57.930Z,90
2022-09-11T09:57:23.084Z,88
2022-09-11T10:00:48.268Z,88
2022-09-11T10:04:13.471Z,88
2022-09-11T10:07:38.670Z,87
2022-09-11T10:11:03.880Z,88
2022-09-11T10:14:50.202Z,89
2022-09-11T10:17:54.185Z,88
2022-09-11T10:21:19.358Z,86
2022-09-11T10:24:44.542Z,87
2022-09-11T10:28:09.721Z,85
2022-09-11T10:31:34.897Z,86
2022-09-11T10:35:00.073Z,87
2022-09-11T10:38:25.226Z,88
2022-09-11T10:41:50.408Z,88
2022-09-11T10:45:15.615Z,88
2022-09-11T10:48:40.780Z,89
2022-09-11T10:52:05.966Z,91
2022-09-11T10:55:31.150Z,92
2022-09-11T10:58:57.176Z,89
2022-09-11T11:02:22.482Z,88
2022-09-11T11:05:47.577Z,88
2022-09-11T11:09:12.762Z,84
2022-09-11T11:12:37.956Z,85
2022-09-11T11:16:03.167Z,85
2022-09-11T11:19:28.389Z,87
2022-09-11T11:22:53.567Z,87
2022-09-11T11:26:18.776Z,88
2022-09-11T11:29:43.949Z,88
2022-09-11T11:33:09.135Z,89
2022-09-11T11:36:34.449Z,86
2022-09-11T11:39:59.668Z,84
2022-09-11T11:43:24.780Z,83
2022-09-11T11:46:49.974Z,86
2022-09-11T11:50:15.324Z,86
2022-09-11T11:53:40.580Z,87
2022-09-11T11:57:05.765Z,87
2022-09-11T12:00:30.946Z,88
2022-09-11T12:03:56.210Z,88
2022-09-11T12:07:21.331Z,90
2022-09-11T12:10:46.527Z,91
2022-09-11T12:14:11.703Z,90
2022-09-11T12:17:36.886Z,89
2022-09-11T12:21:02.056Z,89
2022-09-11T12:24:27.320Z,89
2022-09-11T12:27:52.526Z,88
2022-09-11T12:31:17.756Z,89
2022-09-11T12:34:42.852Z,89
2022-09-11T12:38:08.036Z,88
2022-09-11T12:41:33.202Z,89
2022-09-11T12:44:58.408Z,88
2022-09-11T12:48:23.556Z,87
2022-09-11T12:51:48.709Z,87
2022-09-11T12:55:13.908Z,86
2022-09-11T12:58:39.086Z,86
2022-09-11T13:02:04.513Z,87
2022-09-11T13:05:29.477Z,87
2022-09-11T13:08:54.659Z,87
2022-09-11T13:12:19.824Z,88
2022-09-11T13:15:45.056Z,88
2022-09-11T13:19:10.213Z,88
2022-09-11T13:22:35.364Z,88
2022-09-11T13:26:00.541Z,89
2022-09-11T13:29:25.738Z,86
2022-09-11T13:32:50.907Z,86
2022-09-11T13:36:16.120Z,84
2022-09-11T13:39:41.315Z,84
2022-09-11T13:43:06.445Z,84
2022-09-11T13:46:31.631Z,84
2022-09-11T13:49:56.787Z,85
2022-09-11T13:53:21.999Z,87
2022-09-11T13:56:47.158Z,85
2022-09-11T14:00:12.349Z,87
2022-09-11T14:03:37.550Z,89
2022-09-11T14:07:02.710Z,90
2022-09-11T14:10:27.926Z,91
2022-09-11T14:13:53.077Z,90
2022-09-11T14:17:18.300Z,90
2022-09-11T14:20:43.474Z,89
2022-09-11T14:24:08.689Z,90
2022-09-11T14:27:33.908Z,89
2022-09-11T15:04:43.753Z,84
2022-09-11T15:08:08.993Z,83
2022-09-11T15:11:37.485Z,83
2022-09-11T15:14:59.874Z,85
2022-09-11T15:18:24.725Z,87
2022-09-11T15:21:49.998Z,88
2022-09-11T15:25:15.225Z,90
2022-09-11T15:28:40.464Z,91
2022-09-11T15:32:05.676Z,91
2022-09-11T15:35:32.984Z,90
2022-09-11T15:38:56.089Z,90
2022-09-11T15:42:21.239Z,90
2022-09-11T15:45:46.465Z,90
2022-09-11T15:49:11.625Z,90
2022-09-11T15:52:36.899Z,88
2022-09-11T15:56:02.088Z,87
2022-09-11T15:59:27.250Z,85
2022-09-11T16:02:52.600Z,85
2022-09-11T16:06:17.748Z,86
2022-09-11T16:09:42.942Z,87
2022-09-11T16:13:08.158Z,87
2022-09-11T16:16:33.293Z,87
2022-09-11T16:19:58.473Z,87
2022-09-11T16:23:23.647Z,88
2022-09-11T16:26:49.390Z,88
2022-09-11T16:30:41.951Z,89
2022-09-11T16:33:39.740Z,89
2022-09-11T16:37:04.908Z,89
2022-09-11T16:40:30.091Z,89
2022-09-11T16:43:55.238Z,89
2022-09-11T16:47:20.810Z,89
2022-09-11T16:50:45.933Z,89
2022-09-11T16:54:11.115Z,89
2022-09-11T16:57:36.319Z,88
2022-09-11T17:01:01.498Z,89
2022-09-11T17:04:26.663Z,89
2022-09-11T17:07:51.797Z,89
2022-09-11T17:11:32.316Z,89
2022-09-11T17:14:57.480Z,89
2022-09-11T17:18:22.647Z,88
2022-09-11T17:21:47.869Z,88
2022-09-11T17:25:13.037Z,88
2022-09-11T17:28:38.201Z,89
2022-09-11T17:32:26.535Z,89
2022-09-11T17:35:28.604Z,89
2022-09-11T17:38:53.835Z,89
2022-09-11T17:42:19.007Z,89
2022-09-11T17:45:44.459Z,89
2022-09-11T17:49:09.686Z,89
2022-09-11T17:52:34.863Z,89
2022-09-11T17:56:00.087Z,89
2022-09-11T17:59:25.232Z,88
2022-09-11T18:02:50.434Z,89
2022-09-11T18:06:15.626Z,89
2022-09-11T18:09:40.830Z,89
2022-09-11T18:13:06.076Z,89
2022-09-11T18:16:31.342Z,89
2022-09-11T18:19:57.518Z,89
2022-09-11T18:23:21.706Z,89
2022-09-11T18:26:46.917Z,89
2022-09-11T18:30:12.127Z,89
2022-09-11T18:33:37.284Z,89
2022-09-11T18:37:02.496Z,89
2022-09-11T18:40:27.719Z,89
2022-09-11T18:43:52.902Z,89
2022-09-11T18:47:18.123Z,89
2022-09-11T18:50:43.343Z,89
2022-09-11T18:54:08.556Z,89
2022-09-11T18:57:36.352Z,89
2022-09-11T19:01:00.216Z,89
2022-09-11T19:04:24.213Z,89
2022-09-11T19:07:49.359Z,89
2022-09-11T19:11:14.545Z,89
2022-09-11T19:14:39.756Z,89
2022-09-11T19:18:04.919Z,90
2022-09-11T19:21:30.147Z,90
2022-09-11T19:24:55.376Z,89
2022-09-11T19:28:20.581Z,89
2022-09-11T19:31:45.828Z,89
2022-09-11T19:35:10.978Z,89
2022-09-11T19:38:36.212Z,89
2022-09-11T19:42:01.414Z,89
2022-09-11T19:45:26.657Z,89
2022-09-11T19:48:51.886Z,89
2022-09-11T19:52:17.090Z,90
2022-09-11T19:55:42.399Z,91
2022-09-11T19:59:07.621Z,91
2022-09-11T20:02:32.826Z,91
2022-09-11T20:05:58.069Z,90
2022-09-11T20:09:31.989Z,90
2022-09-11T20:12:48.579Z,89
2022-09-11T20:16:13.827Z,89
2022-09-11T20:19:39.040Z,89
2022-09-11T20:23:04.245Z,89
2022-09-11T20:26:29.433Z,88
2022-09-11T20:29:54.713Z,89
2022-09-11T20:33:19.911Z,89
2022-09-11T20:36:45.131Z,89
2022-09-11T20:40:10.409Z,89
2022-09-11T20:43:35.537Z,89
2022-09-11T20:47:00.797Z,89
2022-09-11T20:50:25.933Z,89
2022-09-11T20:53:51.132Z,89
2022-09-11T20:57:16.306Z,90
2022-09-11T21:00:41.519Z,89
2022-09-11T21:04:06.721Z,89
2022-09-11T21:07:31.921Z,89
2022-09-11T21:10:57.135Z,89
2022-09-11T21:14:22.308Z,89
2022-09-11T21:17:47.490Z,89
2022-09-11T21:21:12.735Z,89
2022-09-11T21:24:37.925Z,89
2022-09-11T21:28:03.108Z,89
2022-09-11T21:31:28.406Z,89
2022-09-11T21:34:53.515Z,89
2022-09-11T21:38:18.707Z,90
2022-09-11T21:41:43.897Z,89
2022-09-11T21:45:09.095Z,89
2022-09-11T21:48:35.826Z,89
2022-09-11T21:51:59.505Z,89
2022-09-11T21:55:24.764Z,88
2022-09-11T21:58:49.934Z,89
2022-09-11T22:02:15.101Z,90
2022-09-11T22:05:40.272Z,90
2022-09-11T22:09:05.454Z,90
2022-09-11T22:12:30.636Z,90
2022-09-11T22:15:55.873Z,90
2022-09-11T22:19:21.010Z,90
2022-09-11T22:22:46.207Z,90
2022-09-11T22:26:11.428Z,90
2022-09-11T22:29:36.659Z,90
2022-09-11T22:33:01.835Z,90
2022-09-11T22:36:27.020Z,90
2022-09-11T22:39:52.272Z,90
2022-09-11T22:43:17.412Z,90
2022-09-11T22:46:45.760Z,90
2022-09-11T22:50:07.785Z,90
2022-09-11T22:53:33.011Z,91
2022-09-11T22:56:58.200Z,90
2022-09-11T23:00:23.392Z,90
2022-09-11T23:03:48.599Z,91
2022-09-11T23:07:13.766Z,91
2022-09-11T23:10:38.940Z,91
2022-09-11T23:14:04.165Z,91
2022-09-11T23:17:29.347Z,91
2022-09-11T23:20:54.568Z,91
2022-09-11T23:24:19.729Z,90
2022-09-11T23:27:44.911Z,90
2022-09-11T23:31:10.129Z,90
2022-09-11T23:34:35.270Z,90
2022-09-11T23:38:00.489Z,90
2022-09-11T23:41:25.659Z,89
2022-09-11T23:44:50.824Z,89
2022-09-11T23:48:15.989Z,88
2022-09-11T23:51:41.167Z,89
2022-09-11T23:55:06.381Z,89
2022-09-11T23:58:31.569Z,89
